Chelsea, MA (02150)

6:07 PM EDT on August 31, 2015 (GMT -0400)
Prattville | | Change Station
CLOSE
Current Station
Personal Weather Station
Location: Chelsea, MA
Elevation: 112 ft
Nearby Weather Stations

Elev 112 ft 42.41 °N, 71.04 °W | Updated 28 seconds ago

Scattered Clouds
Scattered Clouds
86.5 °F
Feels Like 87 °F
N
2.2
Wind Variable Wind from West
Gusts 5.4 mph

Today
High -- | Low -- °F
--% Chance of Precip.
Yesterday
High -- | Low -- °F
Precip. -- in
6:07 AM 7:20 PM
Waning Gibbous, 93% visible
Pressure 29.88 in
Visibility 10.0 miles
Clouds Few 5500 ft
Scattered Clouds 25000 ft
Heat Index 87 °F
Dew Point 63 °F
Humidity 46%
Rainfall in
Snow Depth Not available.
UV 1 out of 12
Pollen 10.80 out of 12
Air Quality Not available.
Flu Activity Not available.
METAR KBOS 312154Z 28014G20KT 10SM FEW055 SCT250 31/16 A2987 RMK AO2 PK WND 27026/2118 SLP116 T03060161
Pressure 29.88 in
Visibility 10.0 miles
Clouds Few 5500 ft
Scattered Clouds 25000 ft
Heat Index 87 °F
Dew Point 63 °F
Humidity 46%
Rainfall in
Snow Depth Not available.
UV 1 out of 12
Pollen 10.80 out of 12
Air Quality Not available.
Flu Activity Not available.
METAR KBOS 312154Z 28014G20KT 10SM FEW055 SCT250 31/16 A2987 RMK AO2 PK WND 27026/2118 SLP116 T03060161

10-Day Weather Forecast

×

Almanac

Astronomy

Aug. 31, 2015 Rise Set
Actual Time
Civil Twilight
Nautical Twilight
Astronomical Twilight
Moon
Length of Visible Light
Length of Day
Tomorrow will be .
, % of the Moon is Illuminated

Today's Extremes

State Highs State Lows

Community

WunderPhotos

Upload Photos

1,851,389 photos uploaded!

WunderBlogs® & News

Nearby

Air Quality

  Air Quality AQ Index Pollutant
Not available.

Snow Depth

Station Depth Elevation

Earthquake Activity

City Distance Mag. Time & Date
Minimum magnitude displayed is 2.5.

Coastal Water Temperatures

Place Temperature

Stations

Nearby Weather Stations

Station Location Temp. Windchill Dew Point Humidity Wind Precip. Elev Updated Type